sensor_id;sensor_type;location;lat;lon;timestamp;pressure;altitude;pressure_sealevel;temperature;humidity
49216;BME280;45943;53.148;8.204;2023-03-14T00:02:10;98816.78;;;12.82;100.00
49216;BME280;45943;53.148;8.204;2023-03-14T00:04:36;98819.41;;;12.76;100.00
49216;BME280;45943;53.148;8.204;2023-03-14T00:07:02;98819.59;;;12.74;100.00
49216;BME280;45943;53.148;8.204;2023-03-14T00:09:29;98814.09;;;12.82;100.00
49216;BME280;45943;53.148;8.204;2023-03-14T00:11:55;98817.91;;;12.73;100.00
49216;BME280;45943;53.148;8.204;2023-03-14T00:14:21;98821.00;;;12.70;100.00
49216;BME280;45943;53.148;8.204;2023-03-14T00:16:47;98815.88;;;12.75;100.00
49216;BME280;45943;53.148;8.204;2023-03-14T00:19:14;98812.44;;;12.67;100.00
49216;BME280;45943;53.148;8.204;2023-03-14T00:21:40;98806.78;;;12.76;100.00
49216;BME280;45943;53.148;8.204;2023-03-14T00:24:06;98809.56;;;12.68;100.00
49216;BME280;45943;53.148;8.204;2023-03-14T00:26:32;98805.41;;;12.80;100.00
49216;BME280;45943;53.148;8.204;2023-03-14T00:28:58;98800.00;;;12.80;100.00
49216;BME280;45943;53.148;8.204;2023-03-14T00:31:24;98813.91;;;12.84;100.00
49216;BME280;45943;53.148;8.204;2023-03-14T00:33:52;98815.50;;;12.78;100.00
49216;BME280;45943;53.148;8.204;2023-03-14T00:36:18;98814.66;;;12.78;100.00
49216;BME280;45943;53.148;8.204;2023-03-14T00:38:47;98810.19;;;12.85;100.00
49216;BME280;45943;53.148;8.204;2023-03-14T00:41:17;98810.00;;;12.86;100.00
49216;BME280;45943;53.148;8.204;2023-03-14T00:43:45;98805.09;;;12.75;100.00
49216;BME280;45943;53.148;8.204;2023-03-14T00:46:11;98810.28;;;12.77;100.00
49216;BME280;45943;53.148;8.204;2023-03-14T00:48:38;98805.66;;;12.85;100.00
49216;BME280;45943;53.148;8.204;2023-03-14T00:51:04;98799.19;;;12.80;100.00
49216;BME280;45943;53.148;8.204;2023-03-14T00:53:31;98794.88;;;12.85;100.00
49216;BME280;45943;53.148;8.204;2023-03-14T00:56:02;98781.72;;;12.90;100.00
49216;BME280;45943;53.148;8.204;2023-03-14T00:58:33;98780.69;;;12.91;100.00
49216;BME280;45943;53.148;8.204;2023-03-14T01:00:59;98776.16;;;12.92;100.00
49216;BME280;45943;53.148;8.204;2023-03-14T01:03:25;98781.13;;;12.95;100.00
49216;BME280;45943;53.148;8.204;2023-03-14T01:05:51;98781.88;;;13.04;100.00
49216;BME280;45943;53.148;8.204;2023-03-14T01:08:17;98797.63;;;13.07;100.00
49216;BME280;45943;53.148;8.204;2023-03-14T01:10:42;98781.88;;;13.04;100.00
49216;BME280;45943;53.148;8.204;2023-03-14T01:13:09;98764.97;;;13.10;100.00
49216;BME280;45943;53.148;8.204;2023-03-14T01:15:36;98769.31;;;13.11;100.00
49216;BME280;45943;53.148;8.204;2023-03-14T01:18:03;98758.34;;;13.12;100.00
49216;BME280;45943;53.148;8.204;2023-03-14T01:20:29;98762.53;;;13.15;100.00
49216;BME280;45943;53.148;8.204;2023-03-14T01:22:55;98757.78;;;13.17;100.00
49216;BME280;45943;53.148;8.204;2023-03-14T01:25:21;98748.22;;;13.14;100.00
49216;BME280;45943;53.148;8.204;2023-03-14T01:27:47;98735.78;;;13.13;100.00
49216;BME280;45943;53.148;8.204;2023-03-14T01:30:13;98734.53;;;13.09;100.00
49216;BME280;45943;53.148;8.204;2023-03-14T01:32:40;98734.88;;;13.06;100.00
49216;BME280;45943;53.148;8.204;2023-03-14T01:35:06;98739.31;;;13.14;100.00
49216;BME280;45943;53.148;8.204;2023-03-14T01:37:32;98742.78;;;13.08;100.00
49216;BME280;45943;53.148;8.204;2023-03-14T01:39:58;98741.94;;;13.07;100.00
49216;BME280;45943;53.148;8.204;2023-03-14T01:42:24;98744.25;;;13.10;100.00
49216;BME280;45943;53.148;8.204;2023-03-14T01:44:57;98735.72;;;13.07;100.00
49216;BME280;45943;53.148;8.204;2023-03-14T01:47:25;98741.56;;;13.10;100.00
49216;BME280;45943;53.148;8.204;2023-03-14T01:52:31;98712.72;;;13.04;100.00
49216;BME280;45943;53.148;8.204;2023-03-14T01:55:03;98709.78;;;12.99;100.00
49216;BME280;45943;53.148;8.204;2023-03-14T01:57:33;98701.00;;;12.90;100.00
49216;BME280;45943;53.148;8.204;2023-03-14T02:00:18;98693.16;;;12.96;100.00
49216;BME280;45943;53.148;8.204;2023-03-14T02:02:47;98685.38;;;13.01;100.00
49216;BME280;45943;53.148;8.204;2023-03-14T02:05:34;98685.72;;;12.98;100.00
49216;BME280;45943;53.148;8.204;2023-03-14T02:08:04;98687.91;;;12.87;100.00
49216;BME280;45943;53.148;8.204;2023-03-14T02:10:35;98695.50;;;12.99;100.00
49216;BME280;45943;53.148;8.204;2023-03-14T02:13:06;98689.19;;;12.91;100.00
49216;BME280;45943;53.148;8.204;2023-03-14T02:15:32;98692.66;;;13.07;100.00
49216;BME280;45943;53.148;8.204;2023-03-14T02:17:58;98694.50;;;13.06;100.00
49216;BME280;45943;53.148;8.204;2023-03-14T02:20:45;98699.06;;;13.06;100.00
49216;BME280;45943;53.148;8.204;2023-03-14T02:23:21;98700.56;;;13.08;100.00
49216;BME280;45943;53.148;8.204;2023-03-14T02:26:00;98699.91;;;13.06;100.00
49216;BME280;45943;53.148;8.204;2023-03-14T02:28:37;98689.78;;;13.08;100.00
49216;BME280;45943;53.148;8.204;2023-03-14T02:31:03;98698.94;;;13.14;100.00
49216;BME280;45943;53.148;8.204;2023-03-14T02:33:29;98697.28;;;13.13;100.00
49216;BME280;45943;53.148;8.204;2023-03-14T02:35:57;98744.69;;;13.14;100.00
49216;BME280;45943;53.148;8.204;2023-03-14T02:38:40;98746.75;;;13.12;100.00
49216;BME280;45943;53.148;8.204;2023-03-14T02:41:12;98747.25;;;13.01;100.00
49216;BME280;45943;53.148;8.204;2023-03-14T02:43:39;98752.03;;;12.84;100.00
49216;BME280;45943;53.148;8.204;2023-03-14T02:46:05;98738.72;;;12.97;100.00
49216;BME280;45943;53.148;8.204;2023-03-14T02:48:33;98732.88;;;12.93;100.00
49216;BME280;45943;53.148;8.204;2023-03-14T02:51:04;98734.41;;;12.81;100.00
49216;BME280;45943;53.148;8.204;2023-03-14T02:53:32;98732.84;;;12.72;100.00
49216;BME280;45943;53.148;8.204;2023-03-14T02:56:00;98740.09;;;12.57;100.00
49216;BME280;45943;53.148;8.204;2023-03-14T02:58:26;98743.09;;;12.62;100.00
49216;BME280;45943;53.148;8.204;2023-03-14T03:00:53;98731.84;;;12.58;100.00
49216;BME280;45943;53.148;8.204;2023-03-14T03:03:19;98733.69;;;12.58;100.00
49216;BME280;45943;53.148;8.204;2023-03-14T03:05:49;98742.25;;;12.47;100.00
49216;BME280;45943;53.148;8.204;2023-03-14T03:08:17;98745.78;;;12.32;100.00
49216;BME280;45943;53.148;8.204;2023-03-14T03:10:47;98740.69;;;12.23;100.00
49216;BME280;45943;53.148;8.204;2023-03-14T03:13:13;98737.91;;;12.16;100.00
49216;BME280;45943;53.148;8.204;2023-03-14T03:15:39;98730.88;;;12.15;100.00
49216;BME280;45943;53.148;8.204;2023-03-14T03:18:06;98728.91;;;12.09;100.00
49216;BME280;45943;53.148;8.204;2023-03-14T03:20:32;98716.97;;;12.12;100.00
49216;BME280;45943;53.148;8.204;2023-03-14T03:22:59;98706.22;;;11.97;100.00
49216;BME280;45943;53.148;8.204;2023-03-14T03:25:25;98705.19;;;11.83;100.00
49216;BME280;45943;53.148;8.204;2023-03-14T03:27:52;98704.34;;;11.83;100.00
49216;BME280;45943;53.148;8.204;2023-03-14T03:30:18;98696.13;;;11.84;100.00
49216;BME280;45943;53.148;8.204;2023-03-14T03:32:44;98694.44;;;11.83;100.00
49216;BME280;45943;53.148;8.204;2023-03-14T03:35:10;98706.28;;;11.89;100.00
49216;BME280;45943;53.148;8.204;2023-03-14T03:37:36;98700.00;;;11.82;100.00
49216;BME280;45943;53.148;8.204;2023-03-14T03:40:02;98705.66;;;11.87;100.00
49216;BME280;45943;53.148;8.204;2023-03-14T03:42:32;98700.31;;;11.78;100.00
49216;BME280;45943;53.148;8.204;2023-03-14T03:45:00;98706.53;;;11.79;100.00
49216;BME280;45943;53.148;8.204;2023-03-14T03:47:26;98707.28;;;11.73;100.00
49216;BME280;45943;53.148;8.204;2023-03-14T03:49:53;98700.06;;;11.73;100.00
49216;BME280;45943;53.148;8.204;2023-03-14T03:52:19;98692.19;;;11.72;100.00
49216;BME280;45943;53.148;8.204;2023-03-14T03:54:46;98698.56;;;11.71;100.00
49216;BME280;45943;53.148;8.204;2023-03-14T03:57:12;98692.34;;;11.56;100.00
49216;BME280;45943;53.148;8.204;2023-03-14T03:59:38;98692.06;;;11.65;100.00
49216;BME280;45943;53.148;8.204;2023-03-14T04:02:05;98688.09;;;11.61;100.00
49216;BME280;45943;53.148;8.204;2023-03-14T04:04:31;98688.81;;;11.55;100.00
49216;BME280;45943;53.148;8.204;2023-03-14T04:06:57;98684.59;;;11.61;100.00
49216;BME280;45943;53.148;8.204;2023-03-14T04:09:23;98687.41;;;11.59;100.00
49216;BME280;45943;53.148;8.204;2023-03-14T04:11:49;98690.69;;;11.69;100.00
49216;BME280;45943;53.148;8.204;2023-03-14T04:14:15;98692.53;;;11.69;100.00
49216;BME280;45943;53.148;8.204;2023-03-14T04:16:41;98685.22;;;11.63;100.00
49216;BME280;45943;53.148;8.204;2023-03-14T04:19:07;98690.09;;;11.82;100.00
49216;BME280;45943;53.148;8.204;2023-03-14T04:21:33;98681.06;;;11.75;100.00
49216;BME280;45943;53.148;8.204;2023-03-14T04:23:59;98686.19;;;11.85;100.00
49216;BME280;45943;53.148;8.204;2023-03-14T04:26:25;98691.56;;;11.85;100.00
49216;BME280;45943;53.148;8.204;2023-03-14T04:28:51;98693.03;;;11.87;100.00
49216;BME280;45943;53.148;8.204;2023-03-14T04:31:19;98696.56;;;11.88;100.00
49216;BME280;45943;53.148;8.204;2023-03-14T04:33:46;98693.25;;;11.86;100.00
49216;BME280;45943;53.148;8.204;2023-03-14T04:36:12;98702.94;;;11.72;100.00
49216;BME280;45943;53.148;8.204;2023-03-14T04:38:39;98690.94;;;11.83;100.00
49216;BME280;45943;53.148;8.204;2023-03-14T04:41:06;98697.13;;;11.83;100.00
49216;BME280;45943;53.148;8.204;2023-03-14T04:43:32;98696.13;;;11.84;100.00
49216;BME280;45943;53.148;8.204;2023-03-14T04:45:58;98693.25;;;11.86;100.00
49216;BME280;45943;53.148;8.204;2023-03-14T04:48:27;98681.22;;;11.82;100.00
49216;BME280;45943;53.148;8.204;2023-03-14T04:50:54;98685.09;;;11.94;100.00
49216;BME280;45943;53.148;8.204;2023-03-14T04:53:20;98691.50;;;11.93;100.00
49216;BME280;45943;53.148;8.204;2023-03-14T04:55:50;98688.31;;;11.89;100.00
49216;BME280;45943;53.148;8.204;2023-03-14T04:58:18;98678.88;;;11.93;100.00
49216;BME280;45943;53.148;8.204;2023-03-14T05:00:44;98681.97;;;11.90;100.00
49216;BME280;45943;53.148;8.204;2023-03-14T05:03:11;98687.69;;;11.87;100.00
49216;BME280;45943;53.148;8.204;2023-03-14T05:05:37;98686.38;;;11.83;100.00
49216;BME280;45943;53.148;8.204;2023-03-14T05:08:02;98664.25;;;11.81;100.00
49216;BME280;45943;53.148;8.204;2023-03-14T05:10:28;98673.78;;;11.84;100.00
49216;BME280;45943;53.148;8.204;2023-03-14T05:12:54;98659.06;;;11.94;100.00
49216;BME280;45943;53.148;8.204;2023-03-14T05:15:20;98669.69;;;11.88;100.00
49216;BME280;45943;53.148;8.204;2023-03-14T05:17:46;98678.16;;;11.85;100.00
49216;BME280;45943;53.148;8.204;2023-03-14T05:20:14;98665.34;;;11.87;100.00
49216;BME280;45943;53.148;8.204;2023-03-14T05:22:41;98665.16;;;11.88;100.00
49216;BME280;45943;53.148;8.204;2023-03-14T05:25:08;98661.00;;;11.86;100.00
49216;BME280;45943;53.148;8.204;2023-03-14T05:27:34;98664.91;;;11.83;100.00
49216;BME280;45943;53.148;8.204;2023-03-14T05:30:01;98654.84;;;12.36;100.00
49216;BME280;45943;53.148;8.204;2023-03-14T05:32:28;98651.66;;;12.47;100.00
49216;BME280;45943;53.148;8.204;2023-03-14T05:34:54;98652.97;;;12.51;100.00
49216;BME280;45943;53.148;8.204;2023-03-14T05:37:23;98648.66;;;12.57;100.00
49216;BME280;45943;53.148;8.204;2023-03-14T05:39:50;98653.25;;;12.42;100.00
49216;BME280;45943;53.148;8.204;2023-03-14T05:42:16;98667.63;;;12.49;100.00
49216;BME280;45943;53.148;8.204;2023-03-14T05:44:42;98668.28;;;12.51;100.00
49216;BME280;45943;53.148;8.204;2023-03-14T05:47:08;98658.88;;;12.61;100.00
49216;BME280;45943;53.148;8.204;2023-03-14T05:49:34;98654.81;;;12.51;100.00
49216;BME280;45943;53.148;8.204;2023-03-14T05:52:00;98655.75;;;12.43;100.00
49216;BME280;45943;53.148;8.204;2023-03-14T05:54:26;98658.53;;;12.50;100.00
49216;BME280;45943;53.148;8.204;2023-03-14T05:56:52;98659.09;;;12.45;100.00
49216;BME280;45943;53.148;8.204;2023-03-14T05:59:18;98656.47;;;12.52;100.00
49216;BME280;45943;53.148;8.204;2023-03-14T06:01:44;98664.22;;;12.40;100.00
49216;BME280;45943;53.148;8.204;2023-03-14T06:04:10;98656.69;;;12.35;100.00
49216;BME280;45943;53.148;8.204;2023-03-14T06:06:36;98653.75;;;12.16;100.00
49216;BME280;45943;53.148;8.204;2023-03-14T06:09:02;98661.56;;;12.11;100.00
49216;BME280;45943;53.148;8.204;2023-03-14T06:11:28;98647.75;;;12.14;100.00
49216;BME280;45943;53.148;8.204;2023-03-14T06:13:54;98652.72;;;12.17;100.00
49216;BME280;45943;53.148;8.204;2023-03-14T06:16:20;98647.16;;;12.18;100.00
49216;BME280;45943;53.148;8.204;2023-03-14T06:18:46;98651.91;;;12.16;100.00
49216;BME280;45943;53.148;8.204;2023-03-14T06:21:14;98650.53;;;12.05;100.00
49216;BME280;45943;53.148;8.204;2023-03-14T06:23:41;98653.56;;;12.17;100.00
49216;BME280;45943;53.148;8.204;2023-03-14T06:26:07;98662.84;;;12.29;100.00
49216;BME280;45943;53.148;8.204;2023-03-14T06:28:33;98672.03;;;12.20;100.00
49216;BME280;45943;53.148;8.204;2023-03-14T06:30:59;98658.31;;;12.15;100.00
49216;BME280;45943;53.148;8.204;2023-03-14T06:33:25;98655.72;;;12.22;100.00
49216;BME280;45943;53.148;8.204;2023-03-14T06:35:51;98647.16;;;12.18;100.00
49216;BME280;45943;53.148;8.204;2023-03-14T06:38:17;98649.69;;;12.20;100.00
49216;BME280;45943;53.148;8.204;2023-03-14T06:40:43;98642.91;;;12.24;100.00
49216;BME280;45943;53.148;8.204;2023-03-14T06:43:09;98653.28;;;12.27;100.00
49216;BME280;45943;53.148;8.204;2023-03-14T06:45:35;98642.00;;;12.02;100.00
49216;BME280;45943;53.148;8.204;2023-03-14T06:48:01;98643.78;;;12.10;100.00
49216;BME280;45943;53.148;8.204;2023-03-14T06:50:27;98635.13;;;12.14;100.00
49216;BME280;45943;53.148;8.204;2023-03-14T06:52:53;98650.44;;;12.14;100.00
49216;BME280;45943;53.148;8.204;2023-03-14T06:55:19;98645.78;;;12.22;100.00
49216;BME280;45943;53.148;8.204;2023-03-14T06:57:46;98654.88;;;12.06;100.00
49216;BME280;45943;53.148;8.204;2023-03-14T07:00:12;98657.81;;;12.26;100.00
49216;BME280;45943;53.148;8.204;2023-03-14T07:02:39;98661.34;;;12.42;100.00
49216;BME280;45943;53.148;8.204;2023-03-14T07:05:05;98655.56;;;12.45;100.00
49216;BME280;45943;53.148;8.204;2023-03-14T07:07:32;98679.50;;;12.40;100.00
49216;BME280;45943;53.148;8.204;2023-03-14T07:09:58;98658.91;;;12.47;100.00
49216;BME280;45943;53.148;8.204;2023-03-14T07:12:24;98659.19;;;12.52;100.00
49216;BME280;45943;53.148;8.204;2023-03-14T07:14:50;98682.56;;;12.37;100.00
49216;BME280;45943;53.148;8.204;2023-03-14T07:17:16;98673.38;;;12.46;100.00
49216;BME280;45943;53.148;8.204;2023-03-14T07:19:42;98675.31;;;12.52;100.00
49216;BME280;45943;53.148;8.204;2023-03-14T07:22:08;98665.69;;;12.43;100.00
49216;BME280;45943;53.148;8.204;2023-03-14T07:24:34;98672.28;;;12.40;100.00
49216;BME280;45943;53.148;8.204;2023-03-14T07:27:00;98671.91;;;12.43;100.00
49216;BME280;45943;53.148;8.204;2023-03-14T07:29:26;98672.91;;;12.42;100.00
49216;BME280;45943;53.148;8.204;2023-03-14T07:31:52;98667.72;;;12.41;100.00
49216;BME280;45943;53.148;8.204;2023-03-14T07:34:17;98673.56;;;12.44;100.00
49216;BME280;45943;53.148;8.204;2023-03-14T07:36:45;98682.84;;;12.27;100.00
49216;BME280;45943;53.148;8.204;2023-03-14T07:39:10;98680.91;;;12.35;100.00
49216;BME280;45943;53.148;8.204;2023-03-14T07:41:36;98678.59;;;12.32;100.00
49216;BME280;45943;53.148;8.204;2023-03-14T07:44:02;98681.44;;;12.46;100.00
49216;BME280;45943;53.148;8.204;2023-03-14T07:46:28;98692.28;;;12.52;100.00
49216;BME280;45943;53.148;8.204;2023-03-14T07:48:54;98689.69;;;12.59;100.00
49216;BME280;45943;53.148;8.204;2023-03-14T07:51:20;98685.38;;;12.64;100.00
49216;BME280;45943;53.148;8.204;2023-03-14T07:53:46;98693.09;;;12.53;100.00
49216;BME280;45943;53.148;8.204;2023-03-14T07:56:12;98705.00;;;12.44;100.00
49216;BME280;45943;53.148;8.204;2023-03-14T07:58:38;98700.44;;;12.44;100.00
49216;BME280;45943;53.148;8.204;2023-03-14T08:01:04;98698.09;;;12.56;100.00
49216;BME280;45943;53.148;8.204;2023-03-14T08:03:30;98702.84;;;12.54;100.00
49216;BME280;45943;53.148;8.204;2023-03-14T08:05:56;98702.09;;;12.60;100.00
49216;BME280;45943;53.148;8.204;2023-03-14T08:08:22;98716.63;;;12.66;100.00
49216;BME280;45943;53.148;8.204;2023-03-14T08:10:48;98710.06;;;12.53;100.00
49216;BME280;45943;53.148;8.204;2023-03-14T08:13:14;98720.47;;;12.42;100.00
49216;BME280;45943;53.148;8.204;2023-03-14T08:15:40;98730.19;;;12.57;100.00
49216;BME280;45943;53.148;8.204;2023-03-14T08:18:06;98728.53;;;12.56;100.00
49216;BME280;45943;53.148;8.204;2023-03-14T08:20:32;98734.72;;;12.57;100.00
49216;BME280;45943;53.148;8.204;2023-03-14T08:22:59;98739.09;;;12.58;100.00
49216;BME280;45943;53.148;8.204;2023-03-14T08:25:26;98741.78;;;12.58;100.00
49216;BME280;45943;53.148;8.204;2023-03-14T08:27:53;98737.69;;;12.62;100.00
49216;BME280;45943;53.148;8.204;2023-03-14T08:30:20;98740.97;;;12.43;100.00
49216;BME280;45943;53.148;8.204;2023-03-14T08:32:47;98767.94;;;12.64;100.00
49216;BME280;45943;53.148;8.204;2023-03-14T08:35:13;98817.75;;;12.60;100.00
49216;BME280;45943;53.148;8.204;2023-03-14T08:37:40;98838.94;;;12.11;100.00
49216;BME280;45943;53.148;8.204;2023-03-14T08:40:07;98853.44;;;11.78;100.00
49216;BME280;45943;53.148;8.204;2023-03-14T08:42:34;98857.13;;;11.55;100.00
49216;BME280;45943;53.148;8.204;2023-03-14T08:45:00;98860.66;;;11.32;100.00
49216;BME280;45943;53.148;8.204;2023-03-14T08:47:26;98886.59;;;11.09;100.00
49216;BME280;45943;53.148;8.204;2023-03-14T08:49:53;98892.47;;;11.04;100.00
49216;BME280;45943;53.148;8.204;2023-03-14T08:52:19;98913.69;;;10.83;100.00
49216;BME280;45943;53.148;8.204;2023-03-14T08:54:45;98936.72;;;10.53;100.00
49216;BME280;45943;53.148;8.204;2023-03-14T08:57:12;98944.28;;;10.33;100.00
49216;BME280;45943;53.148;8.204;2023-03-14T08:59:38;98963.16;;;10.15;100.00
49216;BME280;45943;53.148;8.204;2023-03-14T09:02:04;98971.50;;;9.88;100.00
49216;BME280;45943;53.148;8.204;2023-03-14T09:04:30;98977.66;;;9.72;100.00
49216;BME280;45943;53.148;8.204;2023-03-14T09:06:56;99005.25;;;9.64;100.00
49216;BME280;45943;53.148;8.204;2023-03-14T09:09:26;99022.41;;;9.45;100.00
49216;BME280;45943;53.148;8.204;2023-03-14T09:11:53;99028.84;;;9.27;100.00
49216;BME280;45943;53.148;8.204;2023-03-14T09:14:18;99045.34;;;9.22;100.00
49216;BME280;45943;53.148;8.204;2023-03-14T09:16:44;99040.59;;;9.08;100.00
49216;BME280;45943;53.148;8.204;2023-03-14T09:19:10;99041.72;;;8.97;100.00
49216;BME280;45943;53.148;8.204;2023-03-14T09:21:36;99064.72;;;8.90;100.00
49216;BME280;45943;53.148;8.204;2023-03-14T09:24:04;99067.91;;;8.94;100.00
49216;BME280;45943;53.148;8.204;2023-03-14T09:26:31;99073.97;;;8.96;100.00
49216;BME280;45943;53.148;8.204;2023-03-14T09:28:57;99096.72;;;9.00;100.00
49216;BME280;45943;53.148;8.204;2023-03-14T09:31:23;99092.47;;;9.15;100.00
49216;BME280;45943;53.148;8.204;2023-03-14T09:33:49;99100.13;;;9.10;100.00
49216;BME280;45943;53.148;8.204;2023-03-14T09:36:15;99113.28;;;9.03;100.00
49216;BME280;45943;53.148;8.204;2023-03-14T09:38:41;99123.75;;;9.14;100.00
49216;BME280;45943;53.148;8.204;2023-03-14T09:41:12;99133.63;;;9.22;100.00
49216;BME280;45943;53.148;8.204;2023-03-14T09:43:41;99136.72;;;9.09;100.00
49216;BME280;45943;53.148;8.204;2023-03-14T09:46:09;99156.47;;;9.08;100.00
49216;BME280;45943;53.148;8.204;2023-03-14T09:48:37;99166.22;;;9.17;100.00
49216;BME280;45943;53.148;8.204;2023-03-14T09:51:04;99185.63;;;9.19;100.00
49216;BME280;45943;53.148;8.204;2023-03-14T09:53:39;99183.13;;;9.18;100.00
49216;BME280;45943;53.148;8.204;2023-03-14T09:56:10;99203.34;;;9.20;100.00
49216;BME280;45943;53.148;8.204;2023-03-14T09:58:42;99217.81;;;9.10;100.00
49216;BME280;45943;53.148;8.204;2023-03-14T10:01:13;99227.84;;;9.08;100.00
49216;BME280;45943;53.148;8.204;2023-03-14T10:03:41;99237.47;;;9.18;100.00
49216;BME280;45943;53.148;8.204;2023-03-14T10:06:11;99247.84;;;9.04;100.00
49216;BME280;45943;53.148;8.204;2023-03-14T10:08:41;99243.50;;;9.03;100.00
49216;BME280;45943;53.148;8.204;2023-03-14T10:11:13;99252.59;;;9.10;100.00
49216;BME280;45943;53.148;8.204;2023-03-14T10:13:48;99260.38;;;9.21;100.00
49216;BME280;45943;53.148;8.204;2023-03-14T10:16:14;99274.16;;;9.26;100.00
49216;BME280;45943;53.148;8.204;2023-03-14T10:18:43;99284.53;;;9.29;100.00
49216;BME280;45943;53.148;8.204;2023-03-14T10:21:32;99291.25;;;9.33;100.00
49216;BME280;45943;53.148;8.204;2023-03-14T10:24:07;99298.31;;;9.34;100.00
49216;BME280;45943;53.148;8.204;2023-03-14T10:26:53;99305.25;;;9.27;100.00
49216;BME280;45943;53.148;8.204;2023-03-14T10:29:21;99318.63;;;9.27;100.00
49216;BME280;45943;53.148;8.204;2023-03-14T10:34:17;99332.38;;;9.32;100.00
49216;BME280;45943;53.148;8.204;2023-03-14T10:36:51;99341.66;;;9.38;100.00
49216;BME280;45943;53.148;8.204;2023-03-14T10:39:24;99338.13;;;9.37;100.00
49216;BME280;45943;53.148;8.204;2023-03-14T10:41:54;99345.53;;;9.43;100.00
49216;BME280;45943;53.148;8.204;2023-03-14T10:44:27;99343.34;;;9.57;100.00
49216;BME280;45943;53.148;8.204;2023-03-14T10:47:00;99352.81;;;9.69;100.00
49216;BME280;45943;53.148;8.204;2023-03-14T10:49:35;99342.41;;;9.84;100.00
49216;BME280;45943;53.148;8.204;2023-03-14T10:52:24;99351.38;;;10.00;100.00
49216;BME280;45943;53.148;8.204;2023-03-14T10:55:03;99352.66;;;10.14;100.00
49216;BME280;45943;53.148;8.204;2023-03-14T10:57:40;99359.81;;;10.31;100.00
49216;BME280;45943;53.148;8.204;2023-03-14T11:00:17;99371.13;;;10.43;100.00
49216;BME280;45943;53.148;8.204;2023-03-14T11:02:49;99372.94;;;10.34;100.00
49216;BME280;45943;53.148;8.204;2023-03-14T11:07:56;99385.66;;;10.32;100.00
49216;BME280;45943;53.148;8.204;2023-03-14T11:10:34;99399.41;;;10.38;100.00
49216;BME280;45943;53.148;8.204;2023-03-14T11:18:36;99412.16;;;10.70;100.00
49216;BME280;45943;53.148;8.204;2023-03-14T11:26:48;99439.63;;;10.98;100.00
49216;BME280;45943;53.148;8.204;2023-03-14T11:29:23;99443.16;;;10.98;100.00
49216;BME280;45943;53.148;8.204;2023-03-14T11:35:16;99461.09;;;11.32;100.00
49216;BME280;45943;53.148;8.204;2023-03-14T11:37:52;99462.78;;;11.33;100.00
49216;BME280;45943;53.148;8.204;2023-03-14T11:40:22;99471.44;;;11.18;100.00
49216;BME280;45943;53.148;8.204;2023-03-14T11:42:54;99480.72;;;10.98;100.00
49216;BME280;45943;53.148;8.204;2023-03-14T11:45:30;99491.22;;;10.83;100.00
49216;BME280;45943;53.148;8.204;2023-03-14T11:48:07;99503.50;;;10.68;100.00
49216;BME280;45943;53.148;8.204;2023-03-14T11:50:59;99522.53;;;10.57;100.00
49216;BME280;45943;53.148;8.204;2023-03-14T11:56:14;99534.66;;;10.87;100.00
49216;BME280;45943;53.148;8.204;2023-03-14T11:58:51;99538.34;;;11.12;100.00
49216;BME280;45943;53.148;8.204;2023-03-14T12:01:23;99548.97;;;11.22;100.00
49216;BME280;45943;53.148;8.204;2023-03-14T12:04:02;99562.06;;;11.25;100.00
49216;BME280;45943;53.148;8.204;2023-03-14T12:09:15;99579.09;;;11.41;88.33
49216;BME280;45943;53.148;8.204;2023-03-14T12:11:50;99583.69;;;11.57;92.08
49216;BME280;45943;53.148;8.204;2023-03-14T12:14:32;99596.56;;;11.45;82.12
49216;BME280;45943;53.148;8.204;2023-03-14T12:17:07;99620.09;;;11.26;80.48
49216;BME280;45943;53.148;8.204;2023-03-14T12:19:43;99620.34;;;11.32;82.12
49216;BME280;45943;53.148;8.204;2023-03-14T12:24:45;99639.84;;;11.42;74.32
49216;BME280;45943;53.148;8.204;2023-03-14T12:27:37;99641.66;;;11.34;72.66
49216;BME280;45943;53.148;8.204;2023-03-14T12:30:27;99656.91;;;11.33;68.69
49216;BME280;45943;53.148;8.204;2023-03-14T12:35:36;99677.91;;;11.38;72.10
49216;BME280;45943;53.148;8.204;2023-03-14T12:38:05;99676.38;;;11.87;67.29
49216;BME280;45943;53.148;8.204;2023-03-14T12:40:39;99678.16;;;12.04;59.80
49216;BME280;45943;53.148;8.204;2023-03-14T12:43:27;99695.28;;;12.46;57.47
49216;BME280;45943;53.148;8.204;2023-03-14T12:48:46;99704.50;;;11.75;54.50
49216;BME280;45943;53.148;8.204;2023-03-14T12:51:15;99724.75;;;11.61;57.67
49216;BME280;45943;53.148;8.204;2023-03-14T12:54:02;99730.56;;;11.31;57.17
49216;BME280;45943;53.148;8.204;2023-03-14T13:02:09;99751.50;;;11.71;52.32
49216;BME280;45943;53.148;8.204;2023-03-14T13:04:46;99753.44;;;12.47;51.06
49216;BME280;45943;53.148;8.204;2023-03-14T13:07:28;99751.56;;;12.89;48.27
49216;BME280;45943;53.148;8.204;2023-03-14T13:12:39;99767.44;;;12.50;47.71
49216;BME280;45943;53.148;8.204;2023-03-14T13:17:50;99792.06;;;12.03;50.69
49216;BME280;45943;53.148;8.204;2023-03-14T13:20:23;99799.38;;;11.75;52.33
49216;BME280;45943;53.148;8.204;2023-03-14T13:22:54;99804.25;;;11.36;52.22
49216;BME280;45943;53.148;8.204;2023-03-14T13:25:20;99819.44;;;11.10;54.79
49216;BME280;45943;53.148;8.204;2023-03-14T13:27:48;99818.91;;;10.79;55.51
49216;BME280;45943;53.148;8.204;2023-03-14T13:30:22;99831.84;;;10.66;57.47
49216;BME280;45943;53.148;8.204;2023-03-14T13:32:52;99837.78;;;10.59;57.35
49216;BME280;45943;53.148;8.204;2023-03-14T13:35:21;99838.59;;;10.42;56.96
49216;BME280;45943;53.148;8.204;2023-03-14T13:37:59;99846.75;;;10.41;60.08
49216;BME280;45943;53.148;8.204;2023-03-14T13:40:31;99851.38;;;10.48;60.78
49216;BME280;45943;53.148;8.204;2023-03-14T13:43:34;99868.75;;;10.54;59.66
49216;BME280;45943;53.148;8.204;2023-03-14T13:46:05;99871.03;;;10.76;58.36
49216;BME280;45943;53.148;8.204;2023-03-14T13:48:49;99877.75;;;11.53;58.09